Weather forecast for Mishelevka (Мишелевка)

Russia, 412 m
N52.890, E103.197


Sounding

Red line — air temperature ˚C.
Blue line — thermal bubble temperature ˚C.
Green line — dew point temperature ˚C.
Wind speed is in meters per second.

Table forecast

GFS 0.25˚ model

temp. wind gust humid. clouds prec. press. hpbl
Mon22 00:00 16 317.0 nw 3 4 79 100 0.0 1007 79
03:00 14 327.0 nnw 2 2 85 83 0.0 1008 23
06:00 13 285.0 wnw 2 2 84 100 0.0 1007 28
09:00 16 296.0 wnw 2 3 87 100 2.4 1007 143
12:00 16 292.0 wnw 2 3 92 100 3.5 1006 200
15:00 20 314.0 nw 3 4 80 100 4.3 1006 444
18:00 20 287.0 wnw 4 4 79 100 0.0 1004 483
21:00 18 292.0 wnw 4 6 86 100 0.1 1006 206
 
Tue23 00:00 16 275.0 w 2 3 91 100 1.3 1005 73
03:00 16 289.0 wnw 2 2 90 100 2.6 1005 47
06:00 16 236.0 sw 2 2 96 100 1.6 1004 44
09:00 17 291.0 wnw 0 1 93 100 2.6 1005 102
12:00 18 196.0 ssw 2 2 91 100 0.6 1005 138
15:00 19 275.0 w 1 1 85 100 0.8 1004 161
18:00 19 157.0 sse 2 3 86 100 0.3 1004 123
21:00 18 155.0 sse 1 1 83 100 0.3 1005 23
 
Wed24 00:00 17 223.0 sw 3 3 84 100 0.1 1005 67
03:00 16 137.0 se 1 1 85 100 0.1 1005 23
06:00 16 109.0 ese 1 1 87 99 0.0 1004 23
09:00 18 119.0 ese 2 3 82 96 0.0 1005 174
12:00 23 127.0 se 3 4 67 100 0.0 1003 598
15:00 27 127.0 se 4 5 50 95 0.0 1002 1610
18:00 27 117.0 ese 6 7 48 0 0.0 1000 1841
21:00 24 110.0 ese 4 8 62 0 0.0 1001 226
 
Thu25 00:00 18 140.0 se 4 10 81 0 0.0 1001 281
03:00 15 123.0 ese 5 13 81 0 0.0 1000 334
06:00 15 124.0 se 5 12 75 0 0.0 999 298
09:00 18 128.0 se 7 12 69 0 0.0 998 437
12:00 24 133.0 se 8 12 52 0 0.0 997 760
15:00 29 132.0 se 7 10 39 0 0.0 996 1609
18:00 29 117.0 ese 7 8 37 37 0.0 995 1967
21:00 24 94.0 e 5 11 50 20 0.0 996 241
 
Fri26 00:00 18 117.0 ese 3 4 69 0 0.0 997 64
03:00 15 99.0 e 3 4 75 0 0.0 997 57
06:00 14 127.0 se 2 3 68 58 0.0 998 29
09:00 17 144.0 se 3 4 61 29 0.0 997 308
12:00 23 138.0 se 3 5 49 0 0.0 996 824
15:00 28 146.0 se 3 6 38 0 0.0 995 1567
18:00 30 102.0 ese 3 5 32 0 0.0 995 2871
21:00 25 79.0 e 2 3 48 2 0.0 996 40
 

0.042 s